createdAt,value
2019-04-11T00:04:06.021Z,62.200001
2019-04-11T00:09:08.170Z,63.099998
2019-04-11T00:14:09.468Z,62.799999
2019-04-11T00:19:12.287Z,63.5
2019-04-11T00:29:16.452Z,66
2019-04-11T00:34:18.731Z,67.800003
2019-04-11T00:39:21.537Z,68.400002
2019-04-11T00:44:23.535Z,69.599998
2019-04-11T00:49:26.203Z,71
2019-04-11T00:54:28.918Z,71.400002
2019-04-11T00:59:30.216Z,72.900002
2019-04-11T01:04:32.779Z,73.800003
2019-04-11T01:09:34.868Z,74.199997
2019-04-11T01:14:37.371Z,75.099998
2019-04-11T01:19:40.593Z,76
2019-04-11T01:24:42.055Z,77
2019-04-11T01:29:44.069Z,78.800003
2019-04-11T01:34:46.252Z,79.300003
2019-04-11T01:39:49.552Z,80.800003
2019-04-11T01:44:50.838Z,81.5
2019-04-11T01:49:53.089Z,82.699997
2019-04-11T01:54:56.369Z,83.300003
2019-04-11T01:59:57.785Z,83.900002
2019-04-11T02:05:00.748Z,84.099998
2019-04-11T02:10:02.631Z,84.800003
2019-04-11T02:15:04.589Z,85
2019-04-11T02:20:07.012Z,86.599998
2019-04-11T02:25:09.153Z,86.300003
2019-04-11T02:30:13.538Z,86.599998
2019-04-11T02:35:15.216Z,86.300003
2019-04-11T02:40:17.678Z,87.300003
2019-04-11T02:45:31.134Z,87.900002
2019-04-11T02:45:56.999Z,87.900002
2019-04-11T02:50:22.008Z,88.900002
2019-04-11T02:55:22.977Z,89.699997
2019-04-11T03:00:26.606Z,89.400002
2019-04-11T03:05:28.747Z,90.5
2019-04-11T03:10:31.475Z,91.199997
2019-04-11T03:16:12.845Z,91.5
2019-04-11T03:16:38.126Z,91.5
2019-04-11T03:20:39.258Z,92
2019-04-11T03:25:38.387Z,93.300003
2019-04-11T03:30:59.009Z,94.199997
2019-04-11T03:31:47.414Z,94.199997
2019-04-11T03:32:17.042Z,94.199997
2019-04-11T03:41:00.560Z,94.900002
2019-04-11T03:41:26.791Z,94.900002
2019-04-11T03:41:59.293Z,94.900002
2019-04-11T03:46:05.299Z,95.400002
2019-04-11T03:46:30.876Z,95.400002
2019-04-11T03:47:02.199Z,95.400002
2019-04-11T03:50:49.079Z,96
2019-04-11T03:55:51.643Z,97.300003
2019-04-11T04:00:56.798Z,97.699997
2019-04-11T04:05:56.941Z,98.599998
2019-04-11T04:10:58.353Z,98.900002
2019-04-11T04:16:10.419Z,99.800003
2019-04-11T04:21:02.114Z,99.400002
2019-04-11T04:26:06.223Z,99.900002
2019-04-11T04:31:06.902Z,99.900002
2019-04-11T04:36:10.887Z,99.900002
2019-04-11T04:41:22.472Z,99.900002
2019-04-11T04:46:55.359Z,99.900002
2019-04-11T04:51:17.627Z,99.900002
2019-04-11T04:56:22.845Z,99.900002
2019-04-11T05:01:21.739Z,99.900002
2019-04-11T05:06:24.114Z,99.900002
2019-04-11T05:11:26.217Z,99.900002
2019-04-11T05:16:27.217Z,99.900002
2019-04-11T05:21:29.671Z,99.900002
2019-04-11T05:26:31.818Z,99.900002
2019-04-11T05:31:34.400Z,99.900002
2019-04-11T05:36:36.619Z,99.900002
2019-04-11T05:41:42.074Z,98.699997
2019-04-11T05:46:49.889Z,98.5
2019-04-11T05:51:45.726Z,95.800003
2019-04-11T05:56:46.464Z,92.199997
2019-04-11T06:01:48.804Z,88.400002
2019-04-11T06:06:50.645Z,85.099998
2019-04-11T06:11:55.002Z,81.400002
2019-04-11T06:16:56.161Z,80.5
2019-04-11T06:21:58.104Z,77.800003
2019-04-11T06:26:59.437Z,77
2019-04-11T06:32:01.624Z,76.800003
2019-04-11T06:37:03.921Z,72.199997
2019-04-11T06:42:07.491Z,73.199997
2019-04-11T06:47:08.450Z,68.900002
2019-04-11T06:52:10.825Z,69
2019-04-11T06:57:13.970Z,69.599998
2019-04-11T07:02:19.528Z,66.800003
2019-04-11T07:07:18.498Z,68.900002
2019-04-11T07:12:19.951Z,62
2019-04-11T07:17:23.036Z,58.700001
2019-04-11T07:22:25.212Z,58.900002
2019-04-11T07:27:27.892Z,63
2019-04-11T07:32:29.914Z,56.200001
2019-04-11T07:37:32.633Z,55.799999
2019-04-11T07:42:35.657Z,56.799999
2019-04-11T07:47:37.151Z,58.299999
2019-04-11T07:52:38.389Z,56.599998
2019-04-11T07:57:40.680Z,53.799999
2019-04-11T08:02:43.314Z,52.900002
2019-04-11T08:07:45.249Z,50.400002
2019-04-11T08:12:47.976Z,50
2019-04-11T08:17:50.155Z,49.799999
2019-04-11T08:22:51.987Z,45.900002
2019-04-11T08:27:58.290Z,49.200001
2019-04-11T08:32:56.582Z,45.099998
2019-04-11T08:38:00.925Z,48
2019-04-11T08:43:02.525Z,43.400002
2019-04-11T08:48:04.487Z,43.400002
2019-04-11T08:53:06.622Z,41.799999
2019-04-11T08:58:08.562Z,41.200001
2019-04-11T09:03:10.412Z,42.400002
2019-04-11T09:08:12.697Z,41.400002
2019-04-11T09:13:15.306Z,40.299999
2019-04-11T09:18:17.772Z,42
2019-04-11T09:23:19.792Z,41.099998
2019-04-11T09:28:21.920Z,38.700001
2019-04-11T09:33:24.677Z,38.5
2019-04-11T09:43:28.629Z,35.400002
2019-04-11T09:48:31.507Z,37.099998
2019-04-11T09:53:34.442Z,36.5
2019-04-11T09:58:35.782Z,33.799999
2019-04-11T10:03:38.774Z,34.099998
2019-04-11T10:08:41.656Z,33.599998
2019-04-11T10:13:42.800Z,33.900002
2019-04-11T10:18:44.816Z,32.599998
2019-04-11T10:23:47.176Z,32.5
2019-04-11T10:28:49.634Z,32.400002
2019-04-11T10:33:51.663Z,30.700001
2019-04-11T10:38:54.891Z,31.4
2019-04-11T10:43:57.153Z,31.6
2019-04-11T10:49:17.800Z,33.400002
2019-04-11T10:54:16.942Z,32.599998
2019-04-11T10:59:19.557Z,30.9
2019-04-11T11:04:21.443Z,30.1
2019-04-11T11:09:24.008Z,25.5
2019-04-11T11:14:26.978Z,28
2019-04-11T11:19:45.625Z,31.4
2019-04-11T11:20:34.260Z,31.4
2019-04-11T11:24:31.624Z,31.4
2019-04-11T11:29:32.993Z,25.4
2019-04-11T11:34:35.245Z,29.9
2019-04-11T11:39:37.594Z,25.4
2019-04-11T11:44:39.792Z,26.200001
2019-04-11T11:49:48.701Z,26
2019-04-11T11:54:44.381Z,23.200001
2019-04-11T11:59:46.667Z,25.200001
2019-04-11T12:04:48.965Z,31
2019-04-11T12:09:51.238Z,28
2019-04-11T12:14:53.837Z,30.299999
2019-04-11T12:20:04.800Z,29.200001
2019-04-11T12:24:58.659Z,24
2019-04-11T12:30:03.080Z,28.1
2019-04-11T12:35:04.081Z,28.799999
2019-04-11T12:40:05.094Z,22.4
2019-04-11T12:45:07.474Z,25.299999
2019-04-11T12:50:09.798Z,26
2019-04-11T12:55:12.052Z,27.299999
2019-04-11T13:00:14.250Z,26.799999
2019-04-11T13:05:16.754Z,24.9
2019-04-11T13:10:18.809Z,22.799999
2019-04-11T13:15:21.197Z,24.6
2019-04-11T13:20:23.471Z,22.9
2019-04-11T13:25:25.827Z,25
2019-04-11T13:30:27.957Z,25.299999
2019-04-11T13:35:30.301Z,23.4
2019-04-11T13:40:32.586Z,24.5
2019-04-11T13:45:34.907Z,26.700001
2019-04-11T13:50:37.187Z,26.1
2019-04-11T13:55:41.964Z,25.700001
2019-04-11T14:00:41.857Z,22
2019-04-11T14:05:44.044Z,23.6
2019-04-11T14:10:46.325Z,23.299999
2019-04-11T14:15:48.598Z,24
2019-04-11T14:20:50.947Z,25
2019-04-11T14:25:53.177Z,28.5
2019-04-11T14:30:55.603Z,26.200001
2019-04-11T14:35:57.874Z,21.700001
2019-04-11T14:41:01.740Z,23.700001
2019-04-11T14:46:02.440Z,22.700001
2019-04-11T14:51:04.666Z,24.299999
2019-04-11T14:56:07.014Z,23.1
2019-04-11T15:01:09.264Z,24.799999
2019-04-11T15:06:14.562Z,24.200001
2019-04-11T15:11:14.010Z,24.9
2019-04-11T15:16:16.244Z,25.299999
2019-04-11T15:21:18.461Z,24.4
2019-04-11T15:26:20.828Z,26
2019-04-11T15:31:23.154Z,27
2019-04-11T15:36:27.617Z,26.299999
2019-04-11T15:41:27.760Z,26.299999
2019-04-11T15:46:30.047Z,27.6
2019-04-11T15:51:34.858Z,26.700001
2019-04-11T15:56:37.859Z,27.299999
2019-04-11T16:01:36.802Z,25.9
2019-04-11T16:11:41.534Z,25.5
2019-04-11T16:16:43.703Z,29.700001
2019-04-11T16:21:45.958Z,26
2019-04-11T16:26:48.292Z,27.6
2019-04-11T16:31:50.596Z,27.4
2019-04-11T16:36:52.876Z,28.299999
2019-04-11T16:41:55.274Z,29.1
2019-04-11T16:46:57.663Z,29.4
2019-04-11T16:51:59.779Z,29.5
2019-04-11T16:57:02.101Z,29.9
2019-04-11T17:02:04.385Z,32
2019-04-11T17:07:06.784Z,32.299999
2019-04-11T17:12:08.936Z,30.9
2019-04-11T17:17:15.194Z,33.400002
2019-04-11T17:22:13.553Z,31.6
2019-04-11T17:27:15.873Z,33.5
2019-04-11T17:32:18.191Z,33.799999
2019-04-11T17:37:20.764Z,32.5
2019-04-11T17:42:22.794Z,34.400002
2019-04-11T17:47:26.964Z,34
2019-04-11T17:52:28.994Z,34.900002
2019-04-11T17:57:29.568Z,34.799999
2019-04-11T18:02:31.833Z,35.799999
2019-04-11T18:07:34.174Z,36.599998
2019-04-11T18:12:36.471Z,39.200001
2019-04-11T18:17:38.899Z,40.700001
2019-04-11T18:22:41.127Z,42.599998
2019-04-11T18:27:43.441Z,43
2019-04-11T18:32:45.737Z,43.200001
2019-04-11T18:37:48.014Z,44.599998
2019-04-11T18:42:50.187Z,45
2019-04-11T18:47:52.541Z,47.200001
2019-04-11T18:52:54.816Z,46.599998
2019-04-11T18:57:57.302Z,47.400002
2019-04-11T19:02:59.424Z,47.099998
2019-04-11T19:08:01.804Z,48.299999
2019-04-11T19:13:04.027Z,49.5
2019-04-11T19:18:07.006Z,49.200001
2019-04-11T19:23:08.666Z,50.200001
2019-04-11T19:28:10.914Z,51.099998
2019-04-11T19:33:13.122Z,51.200001
2019-04-11T19:38:15.527Z,51.700001
2019-04-11T19:43:19.132Z,51.700001
2019-04-11T19:48:20.089Z,52.599998
2019-04-11T19:53:22.434Z,51.799999
2019-04-11T19:58:24.589Z,53.400002
2019-04-11T20:03:27.070Z,53.700001
2019-04-11T20:08:29.327Z,54.599998
2019-04-11T20:13:32.243Z,55.400002
2019-04-11T20:18:33.906Z,55.799999
2019-04-11T20:23:36.161Z,56
2019-04-11T20:28:38.393Z,56.599998
2019-04-11T20:33:40.717Z,56.799999
2019-04-11T20:38:44.690Z,57.400002
2019-04-11T20:43:45.295Z,57.5
2019-04-11T20:48:47.513Z,58
2019-04-11T20:53:49.807Z,58.099998
2019-04-11T20:58:52.199Z,59
2019-04-11T21:03:54.386Z,59.700001
2019-04-11T21:08:56.838Z,59.5
2019-04-11T21:13:59.724Z,60.400002
2019-04-11T21:19:01.313Z,60.599998
2019-04-11T21:24:03.602Z,61
2019-04-11T21:29:05.936Z,61.900002
2019-04-11T21:34:08.125Z,62.5
2019-04-11T21:39:10.620Z,63.099998
2019-04-11T21:44:12.776Z,63.700001
2019-04-11T21:49:15.253Z,64.199997
2019-04-11T21:54:17.489Z,64.699997
2019-04-11T21:59:20.374Z,65.599998
2019-04-11T22:04:22.022Z,66.900002
2019-04-11T22:09:24.300Z,67.199997
2019-04-11T22:14:26.494Z,67.699997
2019-04-11T22:19:28.881Z,69.400002
2019-04-11T22:24:31.207Z,70.800003
2019-04-11T22:29:33.460Z,71.800003
2019-04-11T22:34:35.653Z,74.599998
2019-04-11T22:39:38.015Z,76.900002
2019-04-11T22:44:40.314Z,74.5
2019-04-11T22:49:42.582Z,73.199997
2019-04-11T22:54:44.967Z,72.300003
2019-04-11T22:59:47.183Z,72.900002
2019-04-11T23:04:49.509Z,75.400002
2019-04-11T23:09:51.887Z,75.5
2019-04-11T23:14:54.103Z,74.400002
2019-04-11T23:19:56.351Z,74.599998
2019-04-11T23:24:58.691Z,77.699997
2019-04-11T23:30:00.956Z,78.400002
2019-04-11T23:35:03.243Z,76.400002
2019-04-11T23:40:05.527Z,77.5
2019-04-11T23:45:07.887Z,76.300003
2019-04-11T23:50:10.155Z,76.400002
2019-04-11T23:55:12.380Z,76.400002
